createdAt,value
2019-04-16T00:00:21.338Z,6.13
2019-04-16T00:02:54.068Z,7.80
2019-04-16T00:05:28.615Z,7.20
2019-04-16T00:08:26.555Z,7.30
2019-04-16T00:11:09.359Z,7.23
2019-04-16T00:13:49.559Z,7.00
2019-04-16T00:16:19.160Z,6.93
2019-04-16T00:18:57.271Z,7.17
2019-04-16T00:21:38.396Z,7.40
2019-04-16T00:24:26.023Z,7.57
2019-04-16T00:26:58.033Z,6.60
2019-04-16T00:29:33.039Z,6.90
2019-04-16T00:32:12.408Z,7.33
2019-04-16T00:34:47.238Z,8.03
2019-04-16T00:37:15.195Z,7.43
2019-04-16T00:39:44.621Z,7.60
2019-04-16T00:42:12.236Z,7.20
2019-04-16T00:44:41.711Z,7.43
2019-04-16T00:47:09.565Z,7.73
2019-04-16T00:49:43.889Z,7.97
2019-04-16T00:52:14.907Z,7.10
2019-04-16T00:54:43.228Z,7.13
2019-04-16T00:57:11.475Z,7.60
2019-04-16T00:59:56.371Z,7.30
2019-04-16T01:02:33.159Z,7.03
2019-04-16T01:05:01.034Z,6.40
2019-04-16T01:07:29.203Z,7.33
2019-04-16T01:10:15.470Z,7.43
2019-04-16T01:12:44.706Z,7.40
2019-04-16T01:15:14.105Z,7.20
2019-04-16T01:17:42.224Z,8.47
2019-04-16T01:20:12.668Z,8.93
2019-04-16T01:22:46.616Z,9.27
2019-04-16T01:25:11.682Z,8.73
2019-04-16T01:27:43.514Z,8.43
2019-04-16T01:30:14.454Z,8.57
2019-04-16T01:33:14.266Z,9.00
2019-04-16T01:35:51.726Z,8.03
2019-04-16T01:38:41.157Z,8.87
2019-04-16T01:41:12.304Z,8.57
2019-04-16T01:43:40.171Z,8.77
2019-04-16T01:46:07.820Z,9.77
2019-04-16T01:48:38.656Z,8.93
2019-04-16T01:51:05.341Z,8.53
2019-04-16T01:53:33.414Z,9.00
2019-04-16T01:56:01.720Z,8.67
2019-04-16T01:58:33.566Z,8.37
2019-04-16T02:00:59.197Z,8.80
2019-04-16T02:03:27.052Z,8.50
2019-04-16T02:05:57.148Z,8.70
2019-04-16T02:08:28.357Z,8.57
2019-04-16T02:10:57.716Z,8.60
2019-04-16T02:13:25.424Z,9.10
2019-04-16T02:15:53.550Z,8.43
2019-04-16T02:18:22.468Z,8.43
2019-04-16T02:20:50.231Z,8.77
2019-04-16T02:23:18.186Z,9.10
2019-04-16T02:25:48.474Z,10.23
2019-04-16T02:28:15.534Z,8.73
2019-04-16T02:30:43.369Z,8.77
2019-04-16T02:33:54.235Z,8.93
2019-04-16T02:36:44.938Z,9.37
2019-04-16T02:39:13.377Z,8.70
2019-04-16T02:41:41.294Z,8.63
2019-04-16T02:44:14.258Z,8.20
2019-04-16T02:46:39.206Z,8.53
2019-04-16T02:49:08.302Z,8.90
2019-04-16T02:52:00.852Z,8.90
2019-04-16T02:54:37.512Z,8.57
2019-04-16T02:57:27.990Z,9.07
2019-04-16T02:59:57.893Z,9.00
2019-04-16T03:02:43.344Z,9.13
2019-04-16T03:05:29.842Z,9.03
2019-04-16T03:08:01.422Z,8.00
2019-04-16T03:10:30.282Z,8.60
2019-04-16T03:12:57.998Z,8.53
2019-04-16T03:15:44.857Z,8.80
2019-04-16T03:18:16.502Z,9.10
2019-04-16T03:20:44.172Z,9.50
2019-04-16T03:23:12.703Z,8.70
2019-04-16T03:25:41.357Z,9.40
2019-04-16T03:28:10.125Z,8.73
2019-04-16T03:30:42.085Z,8.60
2019-04-16T03:33:12.350Z,8.23
2019-04-16T03:35:38.823Z,8.80
2019-04-16T03:38:07.733Z,10.10
2019-04-16T03:40:35.758Z,9.20
2019-04-16T03:43:04.805Z,8.90
2019-04-16T03:45:34.436Z,9.50
2019-04-16T03:48:02.124Z,8.77
2019-04-16T03:50:32.235Z,8.70
2019-04-16T03:53:00.134Z,9.97
2019-04-16T03:55:27.816Z,9.50
2019-04-16T03:57:55.536Z,8.60
2019-04-16T04:00:23.255Z,9.20
2019-04-16T04:02:55.059Z,8.87
2019-04-16T04:05:21.936Z,9.47
2019-04-16T04:07:49.640Z,8.90
2019-04-16T04:10:29.574Z,9.23
2019-04-16T04:12:46.955Z,10.70
2019-04-16T04:15:17.801Z,9.13
2019-04-16T04:17:46.097Z,9.50
2019-04-16T04:20:18.448Z,8.93
2019-04-16T04:22:46.342Z,9.63
2019-04-16T04:25:26.542Z,8.83
2019-04-16T04:27:55.964Z,8.83
2019-04-16T04:30:25.625Z,8.83
2019-04-16T04:32:56.011Z,9.43
2019-04-16T04:35:30.314Z,9.00
2019-04-16T04:38:00.840Z,9.60
2019-04-16T04:40:27.479Z,9.50
2019-04-16T04:43:00.919Z,9.87
2019-04-16T04:45:33.948Z,10.33
2019-04-16T04:48:06.151Z,10.00
2019-04-16T04:50:36.074Z,8.63
2019-04-16T04:53:06.594Z,9.53
2019-04-16T04:55:35.577Z,9.00
2019-04-16T04:58:03.468Z,9.73
2019-04-16T05:00:32.172Z,9.90
2019-04-16T05:03:06.899Z,9.87
2019-04-16T05:05:40.165Z,9.27
2019-04-16T05:08:14.347Z,10.03
2019-04-16T05:10:48.197Z,10.00
2019-04-16T05:13:17.585Z,8.90
2019-04-16T05:15:46.909Z,8.93
2019-04-16T05:18:18.708Z,9.27
2019-04-16T05:20:54.484Z,12.97
2019-04-16T05:30:24.506Z,9.17
2019-04-16T05:33:11.720Z,9.77
2019-04-16T05:35:41.569Z,9.53
2019-04-16T05:38:09.599Z,9.60
2019-04-16T05:40:40.161Z,9.53
2019-04-16T05:43:07.782Z,10.40
2019-04-16T05:45:37.699Z,12.23
2019-04-16T05:48:09.788Z,10.77
2019-04-16T05:57:44.457Z,9.97
2019-04-16T06:00:28.651Z,11.03
2019-04-16T06:03:02.479Z,9.83
2019-04-16T06:05:32.419Z,10.20
2019-04-16T06:08:25.059Z,10.80
2019-04-16T06:10:49.971Z,10.33
2019-04-16T06:14:19.563Z,10.20
2019-04-16T06:17:35.161Z,10.60
2019-04-16T06:20:30.863Z,9.77
2019-04-16T06:23:24.408Z,10.27
2019-04-16T06:26:44.355Z,10.07
2019-04-16T06:30:09.083Z,9.87
2019-04-16T06:32:49.048Z,9.67
2019-04-16T06:35:43.434Z,11.27
2019-04-16T06:38:33.545Z,9.97
2019-04-16T06:41:06.573Z,14.90
2019-04-16T06:43:40.574Z,17.17
2019-04-16T06:46:49.717Z,9.77
2019-04-16T06:49:51.178Z,28.60
2019-04-16T06:52:54.648Z,9.83
2019-04-16T06:55:36.257Z,11.20
2019-04-16T06:58:21.826Z,11.40
2019-04-16T07:01:15.479Z,9.37
2019-04-16T07:03:58.217Z,9.50
2019-04-16T07:11:17.077Z,10.27
2019-04-16T07:13:46.541Z,10.93
2019-04-16T07:16:17.582Z,8.90
2019-04-16T07:19:17.322Z,9.73
2019-04-16T07:22:07.573Z,12.00
2019-04-16T07:24:57.605Z,10.00
2019-04-16T07:27:58.608Z,9.27
2019-04-16T07:35:00.525Z,10.20
2019-04-16T07:38:11.698Z,9.83
2019-04-16T07:41:10.772Z,10.47
2019-04-16T07:43:54.987Z,10.40
2019-04-16T07:46:56.944Z,11.13
2019-04-16T07:49:55.928Z,13.23
2019-04-16T07:52:58.822Z,11.73
2019-04-16T07:55:52.259Z,11.00
2019-04-16T07:59:01.261Z,9.27
2019-04-16T08:01:27.927Z,9.93
2019-04-16T08:04:40.243Z,9.37
2019-04-16T08:12:22.304Z,9.73
2019-04-16T08:15:12.450Z,8.87
2019-04-16T08:25:07.318Z,9.03
2019-04-16T08:27:35.178Z,9.33
2019-04-16T08:30:13.468Z,9.67
2019-04-16T08:33:16.878Z,10.57
2019-04-16T08:36:37.070Z,9.03
2019-04-16T08:39:49.092Z,8.43
2019-04-16T08:42:17.777Z,9.57
2019-04-16T08:44:49.495Z,9.00
2019-04-16T08:47:24.681Z,9.50
2019-04-16T08:50:11.757Z,8.60
2019-04-16T08:53:06.422Z,9.70
2019-04-16T08:55:35.052Z,9.33
2019-04-16T08:58:06.042Z,8.93
2019-04-16T09:00:48.841Z,9.37
2019-04-16T09:03:31.803Z,9.77
2019-04-16T09:06:13.502Z,9.97
2019-04-16T09:09:24.352Z,9.63
2019-04-16T09:11:56.116Z,11.87
2019-04-16T09:14:26.615Z,10.23
2019-04-16T09:17:10.952Z,10.47
2019-04-16T09:19:41.827Z,10.70
2019-04-16T09:22:16.803Z,10.73
2019-04-16T09:25:13.989Z,11.50
2019-04-16T09:31:06.211Z,11.40
2019-04-16T09:34:08.830Z,10.83
2019-04-16T09:37:01.883Z,11.13
2019-04-16T09:40:17.768Z,11.30
2019-04-16T09:42:48.996Z,11.80
2019-04-16T09:45:40.302Z,10.73
2019-04-16T09:48:15.986Z,11.83
2019-04-16T09:50:48.046Z,12.07
2019-04-16T09:53:51.887Z,11.43
2019-04-16T09:56:43.594Z,10.50
2019-04-16T09:59:39.784Z,11.77
2019-04-16T10:02:54.921Z,10.60
2019-04-16T10:05:41.734Z,11.13
2019-04-16T10:08:17.381Z,11.30
2019-04-16T10:11:11.330Z,13.80
2019-04-16T10:14:51.094Z,15.47
2019-04-16T10:17:27.161Z,12.10
2019-04-16T10:20:12.122Z,10.13
2019-04-16T10:23:08.635Z,10.63
2019-04-16T10:26:47.631Z,10.30
2019-04-16T10:30:15.099Z,10.57
2019-04-16T10:32:44.900Z,10.33
2019-04-16T10:35:16.143Z,10.30
2019-04-16T10:41:30.659Z,9.73
2019-04-16T10:47:12.203Z,10.33
2019-04-16T10:50:00.818Z,11.50
2019-04-16T10:59:01.828Z,11.17
2019-04-16T11:05:15.366Z,8.67
2019-04-16T11:07:45.567Z,8.40
2019-04-16T11:10:36.499Z,8.43
2019-04-16T11:14:00.527Z,8.73
2019-04-16T11:16:45.414Z,8.73
2019-04-16T11:29:47.124Z,8.47
2019-04-16T11:32:53.320Z,8.20
2019-04-16T11:35:23.037Z,8.10
2019-04-16T11:38:09.117Z,8.70
2019-04-16T11:40:40.871Z,8.50
2019-04-16T11:43:08.220Z,8.03
2019-04-16T11:45:38.118Z,9.13
2019-04-16T11:48:06.127Z,9.47
2019-04-16T11:50:54.046Z,8.13
2019-04-16T11:53:35.737Z,8.97
2019-04-16T11:56:50.206Z,8.80
2019-04-16T11:59:18.518Z,9.13
2019-04-16T12:02:13.859Z,8.30
2019-04-16T12:05:22.174Z,8.97
2019-04-16T12:08:28.666Z,8.77
2019-04-16T12:11:14.661Z,8.47
2019-04-16T12:14:10.425Z,9.20
2019-04-16T12:17:18.607Z,9.10
2019-04-16T12:20:29.037Z,9.70
2019-04-16T12:30:46.509Z,8.30
2019-04-16T12:33:29.588Z,8.13
2019-04-16T12:36:06.274Z,9.30
2019-04-16T12:38:41.574Z,8.87
2019-04-16T12:41:54.480Z,9.70
2019-04-16T12:45:02.776Z,9.00
2019-04-16T12:48:40.710Z,9.43
2019-04-16T12:55:35.767Z,8.27
2019-04-16T12:58:37.827Z,9.07
2019-04-16T13:02:02.079Z,5.70
2019-04-16T13:05:21.800Z,8.87
2019-04-16T13:08:38.822Z,8.83
2019-04-16T13:11:38.724Z,8.37
2019-04-16T13:14:22.373Z,8.80
2019-04-16T13:17:02.118Z,9.63
2019-04-16T13:24:02.216Z,8.83
2019-04-16T13:26:52.887Z,9.10
2019-04-16T13:29:29.204Z,9.10
2019-04-16T13:31:56.128Z,9.13
2019-04-16T13:34:25.771Z,8.53
2019-04-16T13:36:59.151Z,9.10
2019-04-16T13:39:45.929Z,8.80
2019-04-16T13:42:13.800Z,8.53
2019-04-16T13:45:18.065Z,10.20
2019-04-16T13:48:43.510Z,8.53
2019-04-16T13:52:02.141Z,9.00
2019-04-16T13:55:08.412Z,8.80
2019-04-16T13:58:14.316Z,8.83
2019-04-16T14:01:08.885Z,9.07
2019-04-16T14:03:56.310Z,8.47
2019-04-16T14:06:27.026Z,9.33
2019-04-16T14:10:04.715Z,8.67
2019-04-16T14:16:01.417Z,9.03
2019-04-16T14:19:49.696Z,8.67
2019-04-16T14:23:07.930Z,8.63
2019-04-16T14:26:02.883Z,8.40
2019-04-16T14:28:52.342Z,8.90
2019-04-16T14:31:22.908Z,7.87
2019-04-16T14:34:57.080Z,9.13
2019-04-16T14:38:04.396Z,8.23
2019-04-16T14:44:17.091Z,8.07
2019-04-16T14:47:49.961Z,7.93
2019-04-16T14:51:13.678Z,8.47
2019-04-16T14:54:38.416Z,8.33
2019-04-16T14:57:10.995Z,8.40
2019-04-16T15:00:00.319Z,8.27
2019-04-16T15:02:42.097Z,8.73
2019-04-16T15:05:34.806Z,8.47
2019-04-16T15:12:45.195Z,8.33
2019-04-16T15:15:20.652Z,8.37
2019-04-16T15:18:04.112Z,7.90
2019-04-16T15:20:55.096Z,8.50
2019-04-16T15:24:11.189Z,7.97
2019-04-16T15:27:12.909Z,7.57
2019-04-16T15:30:45.471Z,7.70
2019-04-16T15:34:09.851Z,7.20
2019-04-16T15:40:32.688Z,7.53
2019-04-16T15:44:09.781Z,8.40
2019-04-16T15:47:24.221Z,7.60
2019-04-16T15:50:24.449Z,7.80
2019-04-16T15:53:05.175Z,7.37
2019-04-16T15:55:56.368Z,7.83
2019-04-16T15:59:14.758Z,7.57
2019-04-16T16:02:45.173Z,7.07
2019-04-16T16:05:19.729Z,7.50
2019-04-16T16:07:57.906Z,7.17
2019-04-16T16:10:34.386Z,7.97
2019-04-16T16:13:06.373Z,7.57
2019-04-16T16:15:34.208Z,7.97
2019-04-16T16:18:16.435Z,7.60
2019-04-16T16:21:34.640Z,7.77
2019-04-16T16:24:07.947Z,8.20
2019-04-16T16:26:54.594Z,8.70
2019-04-16T16:29:23.327Z,8.17
2019-04-16T16:31:52.877Z,7.60
2019-04-16T16:34:21.729Z,7.10
2019-04-16T16:37:09.008Z,7.67
2019-04-16T16:40:15.203Z,7.90
2019-04-16T16:47:58.855Z,7.17
2019-04-16T16:50:51.544Z,7.20
2019-04-16T16:54:17.858Z,8.03
2019-04-16T17:00:43.908Z,7.30
2019-04-16T17:04:07.023Z,7.00
2019-04-16T17:06:58.151Z,6.70
2019-04-16T17:09:47.235Z,7.43
2019-04-16T17:12:26.974Z,6.90
2019-04-16T17:16:02.101Z,6.93
2019-04-16T17:18:35.977Z,7.47
2019-04-16T17:21:06.868Z,7.63
2019-04-16T17:23:47.989Z,7.13
2019-04-16T17:26:24.337Z,7.50
2019-04-16T17:28:59.996Z,7.07
2019-04-16T17:31:30.010Z,7.27
2019-04-16T17:34:07.172Z,7.20
2019-04-16T17:36:41.327Z,7.67
2019-04-16T17:39:17.787Z,7.67
2019-04-16T17:42:00.860Z,7.90
2019-04-16T17:44:49.791Z,7.60
2019-04-16T17:47:36.655Z,7.73
2019-04-16T17:50:17.507Z,8.10
2019-04-16T17:53:32.353Z,7.20
2019-04-16T17:56:51.965Z,8.10
2019-04-16T17:59:49.459Z,7.70
2019-04-16T18:05:51.467Z,8.27
2019-04-16T18:08:48.722Z,8.40
2019-04-16T18:11:30.403Z,7.80
2019-04-16T18:14:18.823Z,7.23
2019-04-16T18:17:07.838Z,8.53
2019-04-16T18:19:58.567Z,9.18
2019-04-16T18:22:48.673Z,8.00
2019-04-16T18:26:21.265Z,8.75
2019-04-16T18:28:49.766Z,8.77
2019-04-16T18:35:28.209Z,8.73
2019-04-16T18:42:19.053Z,8.67
2019-04-16T18:45:40.089Z,8.83
2019-04-16T18:48:17.715Z,8.23
2019-04-16T18:50:48.835Z,8.13
2019-04-16T18:53:26.334Z,8.33
2019-04-16T18:56:02.731Z,8.70
2019-04-16T19:01:56.025Z,8.33
2019-04-16T19:04:50.937Z,8.43
2019-04-16T19:07:21.271Z,9.00
2019-04-16T19:09:52.472Z,8.57
2019-04-16T19:12:25.196Z,9.57
2019-04-16T19:14:57.749Z,8.40
2019-04-16T19:17:31.154Z,9.60
2019-04-16T19:20:25.768Z,8.03
2019-04-16T19:26:49.212Z,7.77
2019-04-16T19:29:45.475Z,7.50
2019-04-16T19:33:18.134Z,7.47
2019-04-16T19:36:49.792Z,8.03
2019-04-16T19:39:25.616Z,7.70
2019-04-16T19:42:21.263Z,7.27
2019-04-16T19:45:05.277Z,7.90
2019-04-16T19:47:47.278Z,7.33
2019-04-16T19:53:51.433Z,8.07
2019-04-16T19:56:51.130Z,7.00
2019-04-16T19:59:22.469Z,8.50
2019-04-16T20:02:00.221Z,8.87
2019-04-16T20:04:30.925Z,9.63
2019-04-16T20:07:04.482Z,8.43
2019-04-16T20:09:49.364Z,8.40
2019-04-16T20:12:17.516Z,9.13
2019-04-16T20:14:58.993Z,8.43
2019-04-16T20:17:28.101Z,8.80
2019-04-16T20:20:23.632Z,8.50
2019-04-16T20:22:54.398Z,8.50
2019-04-16T20:25:24.274Z,7.50
2019-04-16T20:27:57.709Z,7.70
2019-04-16T20:30:38.432Z,8.10
2019-04-16T20:33:17.095Z,9.23
2019-04-16T20:35:50.296Z,9.80
2019-04-16T20:38:37.386Z,9.10
2019-04-16T20:41:05.966Z,8.83
2019-04-16T20:43:35.740Z,8.80
2019-04-16T20:46:03.694Z,9.00
2019-04-16T20:55:33.692Z,8.93
2019-04-16T20:58:01.451Z,8.90
2019-04-16T21:00:33.546Z,8.97
2019-04-16T21:03:21.867Z,9.03
2019-04-16T21:05:39.906Z,8.50
2019-04-16T21:08:07.671Z,8.90
2019-04-16T21:10:38.929Z,8.83
2019-04-16T21:13:09.598Z,9.13
2019-04-16T21:15:42.211Z,9.40
2019-04-16T21:18:16.856Z,9.00
2019-04-16T21:20:51.213Z,10.50
2019-04-16T21:23:21.806Z,12.17
2019-04-16T21:25:52.535Z,12.87
2019-04-16T21:28:35.501Z,14.73
2019-04-16T21:31:20.252Z,19.83
2019-04-16T21:34:06.814Z,20.23
2019-04-16T21:36:45.604Z,11.30
2019-04-16T21:39:41.883Z,10.57
2019-04-16T21:42:13.492Z,9.70
2019-04-16T21:44:48.278Z,9.03
2019-04-16T21:47:22.899Z,9.47
2019-04-16T21:49:50.375Z,9.43
2019-04-16T21:52:18.310Z,10.23
2019-04-16T21:54:51.289Z,10.77
2019-04-16T21:57:22.626Z,11.07
2019-04-16T21:59:58.217Z,11.13
2019-04-16T22:02:34.621Z,13.03
2019-04-16T22:05:03.093Z,15.07
2019-04-16T22:07:34.077Z,11.20
2019-04-16T22:10:02.203Z,11.70
2019-04-16T22:12:33.464Z,11.83
2019-04-16T22:15:02.305Z,9.60
2019-04-16T22:17:35.449Z,9.73
2019-04-16T22:20:03.865Z,12.50
2019-04-16T22:22:30.473Z,12.60
2019-04-16T22:24:58.188Z,13.53
2019-04-16T22:27:26.033Z,12.67
2019-04-16T22:29:59.119Z,11.57
2019-04-16T22:32:30.972Z,11.60
2019-04-16T22:34:58.907Z,10.47
2019-04-16T22:37:26.758Z,9.70
2019-04-16T22:40:32.582Z,9.83
2019-04-16T22:43:12.726Z,9.53
2019-04-16T22:45:52.729Z,9.80
2019-04-16T22:48:23.582Z,9.77
2019-04-16T22:50:56.694Z,9.80
2019-04-16T22:53:25.676Z,10.10
2019-04-16T22:55:56.326Z,9.20
2019-04-16T22:58:27.700Z,8.80
2019-04-16T23:01:07.168Z,8.80
2019-04-16T23:03:36.141Z,9.03
2019-04-16T23:06:05.865Z,9.27
2019-04-16T23:08:35.666Z,8.53
2019-04-16T23:11:06.414Z,8.23
2019-04-16T23:13:38.723Z,9.13
2019-04-16T23:16:10.067Z,9.20
2019-04-16T23:18:37.696Z,9.00
2019-04-16T23:21:10.675Z,9.80
2019-04-16T23:23:39.755Z,8.70
2019-04-16T23:26:07.865Z,8.87
2019-04-16T23:28:35.599Z,8.20
2019-04-16T23:31:03.934Z,8.70
2019-04-16T23:33:32.877Z,9.07
2019-04-16T23:36:03.889Z,9.07
2019-04-16T23:38:33.551Z,8.00
2019-04-16T23:41:01.262Z,9.67
2019-04-16T23:43:44.744Z,9.67
2019-04-16T23:46:28.706Z,10.80
2019-04-16T23:49:31.082Z,10.07
2019-04-16T23:52:07.295Z,9.97
2019-04-16T23:54:40.685Z,10.67
2019-04-16T23:57:25.557Z,9.93
